Accueil
METAR-TAF:

METAR-TAF

Aéroports :

Aéroport de Brindisi

Brindisi, Italie

latitude: 40-39N, longitude: 017-57E, altitude: 15 m

Observation

Le bulletin a été fait il y a 17 minutes, à 00:20 UTC
Vent 5 kt de sud
Température 8°C
Humidité 57%
Pression 1012 hPa
Visibilité 10 km ou plus
pas de nuages en-dessous de 1500 mètres et pas de cumulonimbus.

METAR: LIBR 280020Z 17005KT CAVOK 08/00 Q1012

Heure: 01:37 (00:37 UTC)

Prévision

Le bulletin a été fait il y a 1 heure et 37 minutes, à 23:00 UTC
Prévision valable du 28 à 00 UTC au 28 à 24 UTC
Vent 10 kt de sud/sud-ouest
Visibilité 10 km ou plus
Nuages épars à une hauteur de 3000 ft
Temporairement
du 28 à 07 UTC au 28 à 10 UTC
pluie
Evoluant progressivement
du 28 à 08 UTC au 28 à 10 UTC
Vent 20 kt de nord/nord-ouest avec des rafales jusqu'à 30 kt

TAF: LIBR 272300Z 2800/2824 20010KT 9999 SCT030 TEMPO 2807/2810 RA BECMG 2808/2810 33020G30KT

Observations et prévisions météorologiques de plus de 4000 aéroports (messages METAR et TAF).

Les stations disponibles sont représentées par des disques jaunes et rouges sur la carte.

Passer la souris dessus pour voir le nom de la station.

Cliquer dessus pour voir les observations et prévisions météorologiques.

Pour changer de carte: cliquez sur les boutons verts avec une croix noire pour zoomer, sur le bouton vert avec un tiret pour effectuer un zoom arrière, ou sur les flèches vertes pour les cartes adjacentes.


METAR-TAF: